Terminal Aerodrome Forecast
Issued by NWS Medford, OR

Home | Current Version | Previous Version | Text Only | Print | Product List | Glossary On
Versions: 1 2 3 4 5 6 7 8 9 10 11 12 13 14 15 16 17 18 19 20 21
000
FTUS46 KMFR 271141
TAFMFR
TAF
KMFR 271141Z 2712/2812 00000KT 1/4SM FG VV002
     FM272100 VRB03KT 2SM BR SCT004 SCT030 BKN120
     FM272300 VRB03KT P6SM SCT030 BKN120=

USA.gov is the U.S. government's official web portal to all federal, state and local government web resources and services.